Time;durP1;ratioP1;P1;durP2;ratioP2;P2;SDS_P1;SDS_P2;PMS_P1;PMS_P2;Temp;Humidity;BMP_temperature;BMP_pressure;BME280_temperature;BME280_humidity;BME280_pressure;Samples;Min_cycle;Max_cycle;Signal;HPM_P1;HPM_P2
2024/02/19 00:01:07;;;;;;;4.97;4.03;;;;;;;;;;6235113;23;20415;-86
2024/02/19 00:03:35;;;;;;;3.80;3.30;;;;;;;;;;6259652;22;20413;-85
2024/02/19 00:06:05;;;;;;;7.10;3.93;;;;;;;;;;6260549;22;20423;-85
2024/02/19 00:08:36;;;;;;;5.03;3.77;;;;;;;;;;6234185;23;20432;-86
2024/02/19 00:11:06;;;;;;;4.97;4.20;;;;;;;;;;6260043;22;20436;-87
2024/02/19 00:13:33;;;;;;;13.80;4.60;;;;;;;;;;6232507;23;20412;-87
2024/02/19 00:16:01;;;;;;;8.20;4.20;;;;;;;;;;6259161;22;20420;-85
2024/02/19 00:18:33;;;;;;;7.07;3.80;;;;;;;;;;6232180;23;20484;-86
2024/02/19 00:21:44;;;;;;;8.93;4.07;;;;;;;;;;6226922;23;20536;-87
2024/02/19 00:24:13;;;;;;;4.90;4.20;;;;;;;;;;6213574;23;20428;-85
2024/02/19 00:27:09;;;;;;;7.00;3.50;;;;;;;;;;6218097;23;20400;-85
2024/02/19 00:29:54;;;;;;;9.03;4.23;;;;;;;;;;6221955;23;20424;-85
2024/02/19 00:32:30;;;;;;;6.50;4.20;;;;;;;;;;6221008;23;20468;-83
2024/02/19 00:35:04;;;;;;;8.30;3.80;;;;;;;;;;6221167;23;20430;-85
2024/02/19 00:37:38;;;;;;;4.90;4.20;;;;;;;;;;6221940;23;20426;-87
2024/02/19 00:40:05;;;;;;;6.13;4.47;;;;;;;;;;6247188;23;20455;-87
2024/02/19 00:42:33;;;;;;;5.33;3.93;;;;;;;;;;6218917;23;20459;-85
2024/02/19 00:45:00;;;;;;;4.33;3.97;;;;;;;;;;6246435;23;20404;-86
2024/02/19 00:47:27;;;;;;;11.13;5.90;;;;;;;;;;6245375;23;20409;-86
2024/02/19 00:49:55;;;;;;;4.43;4.00;;;;;;;;;;6245072;23;20436;-83
2024/02/19 00:52:29;;;;;;;6.93;4.10;;;;;;;;;;6219202;23;20435;-85
2024/02/19 00:55:05;;;;;;;6.40;3.97;;;;;;;;;;6220660;23;20415;-87
2024/02/19 00:57:32;;;;;;;7.00;5.50;;;;;;;;;;6219169;23;20409;-87
2024/02/19 00:59:59;;;;;;;7.30;3.90;;;;;;;;;;6245674;23;20511;-86
2024/02/19 01:02:45;;;;;;;4.73;2.90;;;;;;;;;;6241805;23;20794;-87
2024/02/19 01:05:19;;;;;;;11.60;4.00;;;;;;;;;;6219371;23;20389;-86
2024/02/19 01:07:46;;;;;;;5.60;3.13;;;;;;;;;;6244747;23;20405;-85
2024/02/19 01:10:20;;;;;;;7.57;3.30;;;;;;;;;;6223467;23;20393;-86
2024/02/19 01:12:47;;;;;;;3.50;2.70;;;;;;;;;;6221391;23;20486;-86
2024/02/19 01:18:40;;;;;;;11.53;3.70;;;;;;;;;;6200646;23;20393;-86
2024/02/19 01:21:12;;;;;;;9.80;2.60;;;;;;;;;;6224449;23;20950;-84
2024/02/19 01:23:42;;;;;;;6.43;2.57;;;;;;;;;;6230221;23;20413;-86
2024/02/19 01:26:12;;;;;;;10.43;3.73;;;;;;;;;;6232252;23;20377;-85
2024/02/19 01:28:39;;;;;;;8.30;2.37;;;;;;;;;;6264257;22;20427;-87
2024/02/19 01:31:08;;;;;;;4.27;2.07;;;;;;;;;;6221241;22;20474;-83
2024/02/19 01:33:36;;;;;;;4.37;2.40;;;;;;;;;;6211294;23;20451;-84
2024/02/19 01:36:04;;;;;;;9.17;3.57;;;;;;;;;;6209374;23;20978;-84
2024/02/19 01:38:41;;;;;;;7.63;2.30;;;;;;;;;;6219206;23;21018;-85
2024/02/19 01:41:13;;;;;;;6.17;2.67;;;;;;;;;;6215797;23;20471;-85
2024/02/19 01:43:48;;;;;;;10.40;2.50;;;;;;;;;;6210408;23;20416;-85
2024/02/19 01:46:18;;;;;;;10.63;3.30;;;;;;;;;;6219896;23;20400;-85
2024/02/19 01:48:49;;;;;;;7.13;2.73;;;;;;;;;;6220661;23;20611;-86
2024/02/19 01:51:34;;;;;;;6.77;2.60;;;;;;;;;;6245969;23;20431;-87
2024/02/19 01:54:12;;;;;;;11.20;3.43;;;;;;;;;;6220099;23;20389;-87
2024/02/19 01:56:42;;;;;;;4.30;2.43;;;;;;;;;;6247671;23;20434;-85
2024/02/19 01:59:13;;;;;;;7.33;2.97;;;;;;;;;;6226989;23;20404;-85
2024/02/19 02:01:44;;;;;;;9.60;2.80;;;;;;;;;;6229311;23;20433;-86
2024/02/19 02:04:21;;;;;;;4.53;2.67;;;;;;;;;;6256082;23;20415;-85
2024/02/19 02:07:07;;;;;;;7.00;2.60;;;;;;;;;;6231942;23;20431;-85
2024/02/19 02:09:47;;;;;;;4.93;1.77;;;;;;;;;;6227656;23;20451;-87
2024/02/19 02:12:15;;;;;;;7.93;2.20;;;;;;;;;;6245374;23;20432;-86
2024/02/19 02:14:49;;;;;;;6.00;1.80;;;;;;;;;;6220748;23;20454;-86
2024/02/19 02:17:26;;;;;;;5.80;2.20;;;;;;;;;;6219222;23;20475;-86
2024/02/19 02:19:58;;;;;;;4.57;2.20;;;;;;;;;;6219913;23;20466;-85
2024/02/19 02:22:35;;;;;;;5.17;1.93;;;;;;;;;;6218141;23;21107;-85
2024/02/19 02:25:12;;;;;;;3.70;2.70;;;;;;;;;;6219698;23;20416;-85
2024/02/19 02:27:57;;;;;;;5.13;2.03;;;;;;;;;;6220781;23;20416;-88
2024/02/19 02:30:36;;;;;;;6.17;1.87;;;;;;;;;;6245034;23;20421;-87
2024/02/19 02:33:26;;;;;;;3.70;1.60;;;;;;;;;;6246105;22;20463;-86
2024/02/19 02:36:30;;;;;;;4.00;1.67;;;;;;;;;;6134881;23;20940;-85
2024/02/19 02:38:58;;;;;;;5.27;2.80;;;;;;;;;;6133000;23;20438;-85
2024/02/19 02:41:30;;;;;;;8.63;2.23;;;;;;;;;;6155317;23;20436;-86
2024/02/19 02:43:57;;;;;;;5.73;1.60;;;;;;;;;;6110126;23;20419;-85
2024/02/19 02:46:25;;;;;;;4.40;1.70;;;;;;;;;;6112183;23;20523;-86
2024/02/19 02:48:52;;;;;;;9.77;2.00;;;;;;;;;;6112844;23;20416;-86
2024/02/19 02:54:37;;;;;;;6.80;1.83;;;;;;;;;;6109157;23;20480;-83
2024/02/19 02:57:22;;;;;;;6.60;2.10;;;;;;;;;;6135265;23;20468;-85
2024/02/19 02:59:53;;;;;;;6.60;1.87;;;;;;;;;;6138088;23;20475;-85
2024/02/19 03:02:20;;;;;;;10.37;2.03;;;;;;;;;;6128486;23;20656;-86
2024/02/19 03:04:47;;;;;;;5.33;1.80;;;;;;;;;;6120977;23;20415;-86
2024/02/19 03:07:15;;;;;;;3.60;1.80;;;;;;;;;;6121575;23;20408;-87
2024/02/19 03:09:44;;;;;;;7.70;1.93;;;;;;;;;;6131120;23;20427;-86
2024/02/19 03:12:17;;;;;;;8.53;1.70;;;;;;;;;;6157122;23;20535;-87
2024/02/19 03:14:47;;;;;;;12.20;2.27;;;;;;;;;;6226383;23;21426;-88
2024/02/19 03:17:17;;;;;;;10.00;1.60;;;;;;;;;;6189212;23;20421;-87
2024/02/19 03:19:47;;;;;;;6.93;1.93;;;;;;;;;;6189600;23;20479;-86
2024/02/19 03:22:15;;;;;;;5.67;1.97;;;;;;;;;;6185488;23;20605;-85
2024/02/19 03:24:43;;;;;;;10.90;1.83;;;;;;;;;;6214354;23;20489;-88
2024/02/19 03:27:12;;;;;;;14.33;2.43;;;;;;;;;;6213612;23;20417;-88
2024/02/19 03:29:40;;;;;;;5.40;1.90;;;;;;;;;;6188180;23;20412;-85
2024/02/19 03:32:09;;;;;;;6.23;1.80;;;;;;;;;;6187382;23;20437;-85
2024/02/19 03:34:37;;;;;;;6.67;1.90;;;;;;;;;;6214277;23;20482;-86
2024/02/19 03:37:04;;;;;;;7.37;2.73;;;;;;;;;;6185040;23;20398;-86
2024/02/19 03:39:31;;;;;;;5.93;2.23;;;;;;;;;;6212372;23;20433;-86
2024/02/19 03:42:03;;;;;;;7.50;1.80;;;;;;;;;;6213031;23;20445;-85
2024/02/19 03:44:32;;;;;;;6.97;1.73;;;;;;;;;;6186432;23;20412;-86
2024/02/19 03:46:59;;;;;;;4.53;1.57;;;;;;;;;;6186233;23;20410;-86
2024/02/19 03:49:28;;;;;;;4.47;1.60;;;;;;;;;;6177593;23;20457;-84
2024/02/19 03:51:55;;;;;;;6.60;1.57;;;;;;;;;;6202950;23;20425;-85
2024/02/19 03:54:25;;;;;;;3.27;2.13;;;;;;;;;;6185995;23;20409;-86
2024/02/19 03:56:54;;;;;;;5.80;1.50;;;;;;;;;;6188028;23;20398;-85
2024/02/19 03:59:22;;;;;;;3.03;1.30;;;;;;;;;;6214785;23;20455;-86
2024/02/19 04:01:49;;;;;;;6.33;1.60;;;;;;;;;;6188360;23;20445;-83
2024/02/19 04:04:18;;;;;;;6.30;1.40;;;;;;;;;;6216853;23;20440;-86
2024/02/19 04:06:46;;;;;;;5.80;1.90;;;;;;;;;;6194448;23;20421;-87
2024/02/19 04:09:14;;;;;;;4.87;1.50;;;;;;;;;;6195461;23;20433;-87
2024/02/19 04:11:44;;;;;;;5.40;1.47;;;;;;;;;;6224113;23;20425;-87
2024/02/19 04:14:12;;;;;;;5.00;1.80;;;;;;;;;;6194722;23;20390;-85
2024/02/19 04:16:42;;;;;;;2.97;1.50;;;;;;;;;;6208290;23;20390;-85
2024/02/19 04:19:10;;;;;;;6.47;1.73;;;;;;;;;;6211590;23;20419;-86
2024/02/19 04:21:45;;;;;;;5.30;1.63;;;;;;;;;;6210614;23;20430;-87
2024/02/19 04:24:13;;;;;;;1.70;1.00;;;;;;;;;;6235346;23;20455;-86
2024/02/19 04:26:42;;;;;;;7.60;1.47;;;;;;;;;;6235166;23;20410;-87
2024/02/19 04:29:10;;;;;;;6.80;1.97;;;;;;;;;;6215303;23;21011;-85
2024/02/19 04:31:37;;;;;;;3.97;1.80;;;;;;;;;;6186073;23;20432;-84
2024/02/19 04:34:10;;;;;;;5.10;1.53;;;;;;;;;;6211704;23;20424;-86
2024/02/19 04:36:41;;;;;;;13.03;2.07;;;;;;;;;;6214540;23;20455;-85
2024/02/19 04:39:10;;;;;;;4.90;1.67;;;;;;;;;;6213282;23;20445;-86
2024/02/19 04:41:37;;;;;;;4.33;1.70;;;;;;;;;;6187729;23;20448;-86
2024/02/19 04:44:05;;;;;;;5.07;1.87;;;;;;;;;;6187006;23;20445;-87
2024/02/19 04:46:34;;;;;;;5.67;1.70;;;;;;;;;;6214349;23;20406;-86
2024/02/19 04:49:01;;;;;;;4.33;1.77;;;;;;;;;;6187992;23;20410;-86
2024/02/19 04:51:29;;;;;;;3.97;1.80;;;;;;;;;;6188059;23;20422;-87
2024/02/19 04:53:57;;;;;;;10.27;2.40;;;;;;;;;;6187536;23;20448;-87
2024/02/19 04:56:33;;;;;;;9.43;2.23;;;;;;;;;;6213750;23;20420;-84
2024/02/19 04:59:00;;;;;;;4.93;1.77;;;;;;;;;;6186926;23;20417;-85
2024/02/19 05:01:34;;;;;;;9.30;1.80;;;;;;;;;;6187920;23;20524;-86
2024/02/19 05:04:05;;;;;;;3.77;1.43;;;;;;;;;;6190872;23;20880;-85
2024/02/19 05:06:36;;;;;;;5.23;1.63;;;;;;;;;;6190015;23;21282;-87
2024/02/19 05:09:07;;;;;;;4.63;1.97;;;;;;;;;;6212620;23;20406;-86
2024/02/19 05:11:36;;;;;;;6.87;1.63;;;;;;;;;;6186462;23;20938;-87
2024/02/19 05:14:04;;;;;;;8.13;1.57;;;;;;;;;;6185319;23;20757;-86
2024/02/19 05:16:33;;;;;;;5.67;1.50;;;;;;;;;;6187607;23;20406;-87
2024/02/19 05:19:01;;;;;;;5.93;1.60;;;;;;;;;;6186215;23;20505;-87
2024/02/19 05:21:33;;;;;;;4.67;1.57;;;;;;;;;;6185963;23;20437;-86
2024/02/19 05:24:00;;;;;;;4.73;1.53;;;;;;;;;;6185537;23;20464;-86
2024/02/19 05:26:27;;;;;;;5.13;2.00;;;;;;;;;;6185770;23;21006;-87
2024/02/19 05:28:55;;;;;;;5.70;1.53;;;;;;;;;;6185093;23;20423;-86
2024/02/19 05:31:36;;;;;;;10.53;3.83;;;;;;;;;;6185230;23;20551;-84
2024/02/19 05:34:04;;;;;;;4.27;1.40;;;;;;;;;;6184920;23;20476;-85
2024/02/19 05:36:35;;;;;;;4.77;1.57;;;;;;;;;;6185578;23;20410;-84
2024/02/19 05:39:02;;;;;;;6.47;1.90;;;;;;;;;;6185927;23;20493;-86
2024/02/19 05:41:30;;;;;;;5.93;1.60;;;;;;;;;;6196143;23;20425;-84
2024/02/19 05:43:57;;;;;;;5.20;1.60;;;;;;;;;;6213604;23;20448;-84
2024/02/19 05:46:26;;;;;;;4.10;1.60;;;;;;;;;;6214048;23;20427;-86
2024/02/19 05:48:58;;;;;;;4.03;1.60;;;;;;;;;;6221218;23;20405;-84
2024/02/19 05:51:27;;;;;;;6.80;2.10;;;;;;;;;;6190145;23;20517;-85
2024/02/19 05:53:56;;;;;;;8.10;1.80;;;;;;;;;;6218235;23;20471;-85
2024/02/19 05:56:30;;;;;;;5.30;2.03;;;;;;;;;;6192352;23;20973;-84
2024/02/19 05:58:58;;;;;;;5.67;2.10;;;;;;;;;;6190085;23;20418;-85
2024/02/19 06:01:28;;;;;;;5.17;1.53;;;;;;;;;;6187344;23;20464;-85
2024/02/19 06:03:58;;;;;;;7.60;1.70;;;;;;;;;;6193126;23;20441;-85
2024/02/19 06:06:26;;;;;;;7.17;1.50;;;;;;;;;;6196428;23;20409;-86
2024/02/19 06:08:54;;;;;;;4.70;1.47;;;;;;;;;;6220762;23;20417;-83
2024/02/19 06:11:25;;;;;;;9.13;1.93;;;;;;;;;;6197351;23;20430;-85
2024/02/19 06:13:52;;;;;;;7.63;1.90;;;;;;;;;;6193714;23;20445;-84
2024/02/19 06:16:25;;;;;;;3.80;1.40;;;;;;;;;;6188919;23;20405;-85
2024/02/19 06:18:52;;;;;;;4.47;1.43;;;;;;;;;;6214776;23;20473;-87
2024/02/19 06:21:20;;;;;;;4.60;1.63;;;;;;;;;;6220085;23;20493;-85
2024/02/19 06:23:47;;;;;;;4.00;2.27;;;;;;;;;;6206613;23;20449;-85
2024/02/19 06:26:17;;;;;;;5.53;1.40;;;;;;;;;;6205855;23;20422;-86
2024/02/19 06:28:44;;;;;;;7.70;2.00;;;;;;;;;;6229418;23;20513;-86
2024/02/19 06:31:20;;;;;;;4.10;1.33;;;;;;;;;;6220767;23;20441;-84
2024/02/19 06:33:48;;;;;;;5.93;1.70;;;;;;;;;;6216640;23;20489;-83
2024/02/19 06:36:41;;;;;;;5.40;1.40;;;;;;;;;;6219547;23;20412;-83
2024/02/19 06:39:08;;;;;;;5.03;1.70;;;;;;;;;;6191511;23;20610;-86
2024/02/19 06:41:44;;;;;;;7.60;1.63;;;;;;;;;;6224337;23;20697;-85
2024/02/19 06:44:15;;;;;;;4.87;2.00;;;;;;;;;;6219022;23;20465;-86
2024/02/19 06:46:42;;;;;;;6.10;2.20;;;;;;;;;;6191413;23;20490;-85
2024/02/19 06:49:10;;;;;;;9.23;2.03;;;;;;;;;;6194541;23;20436;-87
2024/02/19 06:51:37;;;;;;;3.80;1.93;;;;;;;;;;6194013;23;20441;-84
2024/02/19 06:54:44;;;;;;;7.90;2.20;;;;;;;;;;6193615;23;20417;-87
2024/02/19 06:57:32;;;;;;;6.97;2.37;;;;;;;;;;6128744;23;20460;-87
2024/02/19 07:00:09;;;;;;;3.40;1.83;;;;;;;;;;6192519;23;20401;-84
2024/02/19 07:02:37;;;;;;;8.10;2.30;;;;;;;;;;6190627;23;20471;-86
2024/02/19 07:05:05;;;;;;;4.23;2.07;;;;;;;;;;6193940;23;20420;-86
2024/02/19 07:07:34;;;;;;;10.07;3.30;;;;;;;;;;6192644;23;20417;-87
2024/02/19 07:10:05;;;;;;;5.60;2.27;;;;;;;;;;6192841;23;20405;-87
2024/02/19 07:12:32;;;;;;;4.73;2.17;;;;;;;;;;6225616;23;20437;-87
2024/02/19 07:15:03;;;;;;;4.60;1.70;;;;;;;;;;6183636;23;20467;-84
2024/02/19 07:17:34;;;;;;;7.57;1.87;;;;;;;;;;6205620;23;20933;-84
2024/02/19 07:20:03;;;;;;;4.40;1.83;;;;;;;;;;6219544;23;20410;-85
2024/02/19 07:22:33;;;;;;;4.33;1.53;;;;;;;;;;6217469;23;20456;-84
2024/02/19 07:25:01;;;;;;;5.37;1.70;;;;;;;;;;6223700;23;20446;-87
2024/02/19 07:27:35;;;;;;;10.63;2.50;;;;;;;;;;6219895;23;20409;-85
2024/02/19 07:30:09;;;;;;;4.60;2.40;;;;;;;;;;6211101;23;20405;-85
2024/02/19 07:32:36;;;;;;;5.07;2.93;;;;;;;;;;6184837;23;20459;-85
2024/02/19 07:35:04;;;;;;;9.00;2.80;;;;;;;;;;6185713;23;20413;-83
2024/02/19 07:38:01;;;;;;;7.13;1.83;;;;;;;;;;6159155;23;20465;-83
2024/02/19 07:40:29;;;;;;;9.10;2.90;;;;;;;;;;6168205;23;20417;-84
2024/02/19 07:43:14;;;;;;;6.43;2.20;;;;;;;;;;6214541;23;20437;-84
2024/02/19 07:46:02;;;;;;;6.17;2.07;;;;;;;;;;6188260;23;20410;-86
2024/02/19 07:49:02;;;;;;;7.00;2.30;;;;;;;;;;6215726;23;20394;-85
2024/02/19 07:51:44;;;;;;;5.47;2.13;;;;;;;;;;6192808;23;20428;-88
2024/02/19 07:54:16;;;;;;;9.47;2.37;;;;;;;;;;6212026;23;20508;-85
2024/02/19 07:57:08;;;;;;;4.63;2.13;;;;;;;;;;6192693;23;20424;-85
2024/02/19 07:59:44;;;;;;;8.87;2.60;;;;;;;;;;6212794;23;20417;-84
2024/02/19 08:02:15;;;;;;;5.70;2.20;;;;;;;;;;6187840;23;20479;-83
2024/02/19 08:04:53;;;;;;;5.00;1.80;;;;;;;;;;6194517;23;20437;-85
2024/02/19 08:07:22;;;;;;;6.00;1.80;;;;;;;;;;6191482;23;20420;-85
2024/02/19 08:10:02;;;;;;;6.77;2.13;;;;;;;;;;6194786;23;20417;-85
2024/02/19 08:12:38;;;;;;;8.47;1.97;;;;;;;;;;6217105;23;20485;-84
2024/02/19 08:15:09;;;;;;;8.33;2.30;;;;;;;;;;6193247;23;20905;-83
2024/02/19 08:17:36;;;;;;;3.80;1.90;;;;;;;;;;6216634;23;20508;-82
2024/02/19 08:20:04;;;;;;;3.50;1.70;;;;;;;;;;6191886;23;20426;-84
2024/02/19 08:22:31;;;;;;;10.53;2.47;;;;;;;;;;6216592;23;20440;-85
2024/02/19 08:25:01;;;;;;;12.90;2.60;;;;;;;;;;6190179;23;20437;-84
2024/02/19 08:27:30;;;;;;;3.30;2.20;;;;;;;;;;6189294;23;20406;-84
2024/02/19 08:29:58;;;;;;;5.03;2.00;;;;;;;;;;6215667;23;20427;-86
2024/02/19 08:32:27;;;;;;;4.33;1.87;;;;;;;;;;6221432;23;20450;-87
2024/02/19 08:38:44;;;;;;;6.93;2.50;;;;;;;;;;5980840;24;20442;-85
2024/02/19 08:41:30;;;;;;;6.43;1.83;;;;;;;;;;6010271;23;20457;-85
2024/02/19 08:44:09;;;;;;;5.30;1.93;;;;;;;;;;6101763;23;20448;-84
2024/02/19 08:46:38;;;;;;;5.70;2.13;;;;;;;;;;6210708;23;20417;-84
2024/02/19 08:52:13;;;;;;;5.60;2.60;;;;;;;;;;6186336;23;20452;-85
2024/02/19 08:54:44;;;;;;;10.63;3.27;;;;;;;;;;6196596;23;20504;-85
2024/02/19 08:57:16;;;;;;;6.30;3.60;;;;;;;;;;6214611;23;20432;-84
2024/02/19 08:59:45;;;;;;;6.57;2.73;;;;;;;;;;6192808;23;20413;-83
2024/02/19 09:03:05;;;;;;;;;;;;;;;;;;;;;
2024/02/19 09:05:57;;;;;;;8.00;3.07;;;;;;;;;;6220771;23;20393;-84
2024/02/19 09:08:27;;;;;;;9.03;4.07;;;;;;;;;;6194488;23;20475;-85
2024/02/19 09:10:56;;;;;;;8.87;4.10;;;;;;;;;;6191515;23;20416;-85
2024/02/19 09:13:24;;;;;;;7.90;4.83;;;;;;;;;;6191442;23;20410;-85
2024/02/19 09:15:54;;;;;;;8.27;2.93;;;;;;;;;;6228211;23;20417;-84
2024/02/19 09:18:26;;;;;;;9.57;3.40;;;;;;;;;;6206502;23;20405;-86
2024/02/19 09:20:58;;;;;;;10.47;4.07;;;;;;;;;;6229269;23;20448;-85
2024/02/19 09:23:38;;;;;;;5.23;2.90;;;;;;;;;;6229549;23;20439;-86
2024/02/19 09:26:20;;;;;;;10.63;3.87;;;;;;;;;;6207248;23;20374;-86
2024/02/19 09:29:01;;;;;;;13.20;4.10;;;;;;;;;;6205843;23;20429;-85
2024/02/19 09:31:31;;;;;;;7.50;4.83;;;;;;;;;;6229228;23;20472;-85
2024/02/19 09:34:03;;;;;;;9.03;4.47;;;;;;;;;;6198540;23;20421;-85
2024/02/19 09:36:35;;;;;;;9.27;4.60;;;;;;;;;;6232156;23;20397;-85
2024/02/19 09:39:02;;;;;;;12.10;5.37;;;;;;;;;;6230349;23;20669;-86
2024/02/19 09:41:32;;;;;;;10.43;4.67;;;;;;;;;;6226472;23;20539;-85
2024/02/19 09:44:04;;;;;;;9.97;4.67;;;;;;;;;;6194156;23;20421;-86
2024/02/19 09:46:31;;;;;;;6.80;4.20;;;;;;;;;;6191940;23;20505;-86
2024/02/19 09:49:00;;;;;;;9.60;5.00;;;;;;;;;;6225150;23;20437;-86
2024/02/19 09:51:31;;;;;;;11.27;4.53;;;;;;;;;;6231856;23;20432;-87
2024/02/19 09:54:10;;;;;;;8.97;5.00;;;;;;;;;;6209442;23;20481;-86
2024/02/19 09:56:41;;;;;;;14.37;5.47;;;;;;;;;;6205913;23;20413;-85
2024/02/19 09:59:08;;;;;;;7.70;4.70;;;;;;;;;;6195029;23;20495;-86
2024/02/19 10:01:38;;;;;;;9.03;5.03;;;;;;;;;;6221765;23;20720;-86
2024/02/19 10:04:06;;;;;;;8.50;5.10;;;;;;;;;;6194949;23;20441;-87
2024/02/19 10:06:35;;;;;;;11.23;6.07;;;;;;;;;;6205555;23;21112;-87
2024/02/19 10:09:11;;;;;;;15.03;4.83;;;;;;;;;;6232475;23;20448;-84
2024/02/19 10:11:38;;;;;;;8.40;4.73;;;;;;;;;;6204048;23;20455;-83
2024/02/19 10:14:07;;;;;;;9.93;5.60;;;;;;;;;;6216548;23;20470;-83
2024/02/19 10:16:35;;;;;;;10.03;5.00;;;;;;;;;;6219512;23;20416;-84
2024/02/19 10:19:06;;;;;;;10.83;5.13;;;;;;;;;;6189069;23;20417;-85
2024/02/19 10:25:03;;;;;;;6.77;4.87;;;;;;;;;;6203945;23;20472;-84
2024/02/19 10:27:45;;;;;;;8.43;4.57;;;;;;;;;;6192166;23;20409;-86
2024/02/19 10:30:29;;;;;;;5.37;4.63;;;;;;;;;;6214614;23;20409;-84
2024/02/19 10:33:19;;;;;;;10.93;4.43;;;;;;;;;;6187515;23;20436;-85
2024/02/19 10:36:35;;;;;;;8.93;4.67;;;;;;;;;;6096702;23;20412;-87
2024/02/19 10:39:24;;;;;;;10.93;4.80;;;;;;;;;;6044749;23;20423;-84
2024/02/19 10:42:03;;;;;;;10.63;5.67;;;;;;;;;;6151812;23;20548;-87
2024/02/19 10:44:37;;;;;;;8.10;5.20;;;;;;;;;;6196494;23;20445;-87
2024/02/19 10:47:12;;;;;;;8.90;4.80;;;;;;;;;;6201637;23;20420;-87
2024/02/19 10:49:50;;;;;;;5.97;5.17;;;;;;;;;;6230291;23;20378;-85
2024/02/19 10:52:18;;;;;;;7.60;4.17;;;;;;;;;;6204189;22;20842;-86
2024/02/19 10:55:13;;;;;;;10.80;4.27;;;;;;;;;;6204784;23;20402;-86
2024/02/19 10:58:11;;;;;;;6.67;4.53;;;;;;;;;;6222519;22;20408;-84
2024/02/19 11:00:44;;;;;;;5.83;4.03;;;;;;;;;;6209781;23;20421;-84
2024/02/19 11:03:24;;;;;;;5.87;4.17;;;;;;;;;;6210342;23;20389;-85
2024/02/19 11:06:01;;;;;;;6.23;3.30;;;;;;;;;;6211425;23;20437;-84
2024/02/19 11:08:35;;;;;;;11.30;4.53;;;;;;;;;;6210261;23;20393;-85
2024/02/19 11:11:10;;;;;;;6.17;3.70;;;;;;;;;;6235054;22;20437;-87
2024/02/19 11:13:41;;;;;;;7.80;4.30;;;;;;;;;;6199476;23;20405;-85
2024/02/19 11:16:40;;;;;;;11.20;4.57;;;;;;;;;;6197848;23;20378;-84
2024/02/19 11:19:14;;;;;;;7.83;4.70;;;;;;;;;;6197470;23;20405;-85
2024/02/19 11:21:47;;;;;;;10.50;5.07;;;;;;;;;;6223712;23;20429;-84
2024/02/19 11:24:22;;;;;;;8.03;4.43;;;;;;;;;;6220840;23;20441;-84
2024/02/19 11:26:53;;;;;;;6.33;5.13;;;;;;;;;;6195276;23;21349;-84
2024/02/19 11:29:21;;;;;;;10.80;5.07;;;;;;;;;;6193355;23;20405;-83
2024/02/19 11:32:06;;;;;;;9.77;5.53;;;;;;;;;;6196036;23;20452;-87
2024/02/19 11:34:35;;;;;;;7.30;4.43;;;;;;;;;;6185779;23;20459;-85
2024/02/19 11:37:10;;;;;;;8.00;4.70;;;;;;;;;;6190702;23;20795;-86
2024/02/19 11:39:42;;;;;;;12.60;5.30;;;;;;;;;;6196398;23;20520;-85
2024/02/19 11:42:15;;;;;;;7.87;5.13;;;;;;;;;;6193742;23;20441;-83
2024/02/19 11:44:59;;;;;;;11.30;4.83;;;;;;;;;;6192831;23;20418;-85
2024/02/19 11:47:28;;;;;;;12.53;5.07;;;;;;;;;;6196138;23;20392;-84
2024/02/19 11:50:14;;;;;;;;;;;;;;;;;;;;;
2024/02/19 11:53:06;;;;;;;10.20;5.70;;;;;;;;;;6198307;23;20424;-85
2024/02/19 11:55:34;;;;;;;9.23;5.20;;;;;;;;;;6205742;22;20441;-88
2024/02/19 11:58:05;;;;;;;8.70;4.40;;;;;;;;;;6235964;22;20397;-85
2024/02/19 12:00:36;;;;;;;9.87;4.87;;;;;;;;;;6208596;23;20421;-86
2024/02/19 12:03:04;;;;;;;7.83;4.67;;;;;;;;;;6232436;22;20422;-85
2024/02/19 12:05:43;;;;;;;9.73;4.60;;;;;;;;;;6232120;22;20441;-85
2024/02/19 12:08:10;;;;;;;8.27;4.87;;;;;;;;;;6190774;23;20942;-84
2024/02/19 12:10:39;;;;;;;11.17;4.87;;;;;;;;;;6202195;22;20401;-86
2024/02/19 12:13:10;;;;;;;7.93;4.50;;;;;;;;;;6184352;23;20413;-85
2024/02/19 12:15:40;;;;;;;7.53;4.47;;;;;;;;;;6208398;23;20867;-85
2024/02/19 12:18:10;;;;;;;8.53;3.97;;;;;;;;;;6180974;23;20402;-84
2024/02/19 12:20:40;;;;;;;6.00;3.90;;;;;;;;;;6181928;23;20470;-86
2024/02/19 12:23:10;;;;;;;7.33;4.57;;;;;;;;;;6211357;23;20724;-86
2024/02/19 12:25:40;;;;;;;8.70;4.40;;;;;;;;;;6185967;23;20525;-85
2024/02/19 12:28:08;;;;;;;8.17;4.07;;;;;;;;;;6185862;23;20914;-86
2024/02/19 12:30:38;;;;;;;6.00;4.40;;;;;;;;;;6191991;23;20452;-86
2024/02/19 12:33:05;;;;;;;9.30;4.70;;;;;;;;;;6188301;23;20421;-84
2024/02/19 12:35:35;;;;;;;6.03;4.23;;;;;;;;;;6191218;23;20417;-86
2024/02/19 12:38:11;;;;;;;9.77;4.80;;;;;;;;;;6216941;23;20437;-85
2024/02/19 12:40:41;;;;;;;8.00;4.50;;;;;;;;;;6184622;23;20457;-83
2024/02/19 12:43:12;;;;;;;9.30;5.47;;;;;;;;;;6215624;23;20417;-85
2024/02/19 12:45:42;;;;;;;8.27;4.43;;;;;;;;;;6217084;23;20432;-86
2024/02/19 12:48:20;;;;;;;10.67;4.50;;;;;;;;;;6197391;23;20406;-84
2024/02/19 12:50:48;;;;;;;9.80;4.20;;;;;;;;;;6200456;23;20400;-85
2024/02/19 12:53:15;;;;;;;7.10;3.90;;;;;;;;;;6234399;22;20427;-85
2024/02/19 12:55:45;;;;;;;9.60;4.57;;;;;;;;;;6233125;22;20473;-84
2024/02/19 12:58:12;;;;;;;5.73;3.80;;;;;;;;;;6198587;23;20465;-84
2024/02/19 13:00:42;;;;;;;8.27;4.10;;;;;;;;;;6191065;23;20419;-85
2024/02/19 13:03:13;;;;;;;10.33;4.10;;;;;;;;;;6193638;23;20401;-85
2024/02/19 13:05:40;;;;;;;5.40;3.73;;;;;;;;;;6191612;23;20437;-84
2024/02/19 13:08:13;;;;;;;8.37;4.03;;;;;;;;;;6192967;23;20446;-86
2024/02/19 13:10:44;;;;;;;7.77;3.40;;;;;;;;;;6215628;23;20398;-87
2024/02/19 13:13:16;;;;;;;4.60;2.97;;;;;;;;;;6190903;23;20962;-87
2024/02/19 13:15:47;;;;;;;8.47;3.70;;;;;;;;;;6222788;23;21067;-83
2024/02/19 13:18:20;;;;;;;9.60;3.60;;;;;;;;;;6194958;23;20412;-86
2024/02/19 13:20:48;;;;;;;6.53;3.53;;;;;;;;;;6205634;22;20417;-83
2024/02/19 13:23:20;;;;;;;8.60;3.60;;;;;;;;;;6205188;22;20401;-84
2024/02/19 13:25:48;;;;;;;5.43;3.10;;;;;;;;;;6204000;22;20448;-86
2024/02/19 13:28:17;;;;;;;7.00;3.10;;;;;;;;;;6223794;22;20448;-84
2024/02/19 13:30:48;;;;;;;5.33;3.20;;;;;;;;;;6191256;23;20401;-85
2024/02/19 13:33:31;;;;;;;3.50;3.20;;;;;;;;;;6217426;23;20417;-84
2024/02/19 13:36:02;;;;;;;8.20;3.90;;;;;;;;;;6215428;23;20428;-87
2024/02/19 13:38:30;;;;;;;9.63;4.23;;;;;;;;;;6215223;23;20416;-85
2024/02/19 13:41:00;;;;;;;6.30;3.97;;;;;;;;;;6215524;23;20489;-87
2024/02/19 13:43:31;;;;;;;10.27;4.30;;;;;;;;;;6187803;23;20393;-85
2024/02/19 13:46:07;;;;;;;7.57;4.63;;;;;;;;;;6188978;23;20528;-85
2024/02/19 13:48:35;;;;;;;8.10;4.77;;;;;;;;;;6217584;23;20390;-86
2024/02/19 13:51:05;;;;;;;9.83;4.67;;;;;;;;;;6188293;23;20433;-85
2024/02/19 13:53:34;;;;;;;9.27;5.40;;;;;;;;;;6187224;23;20418;-84
2024/02/19 13:56:03;;;;;;;7.10;4.50;;;;;;;;;;6189357;23;20420;-83
2024/02/19 13:58:35;;;;;;;5.90;4.00;;;;;;;;;;6188212;23;20489;-83
2024/02/19 14:01:06;;;;;;;5.33;3.97;;;;;;;;;;6189473;23;20409;-86
2024/02/19 14:03:39;;;;;;;6.90;3.67;;;;;;;;;;6191125;23;20459;-88
2024/02/19 14:06:11;;;;;;;13.00;6.83;;;;;;;;;;6190408;23;20446;-86
2024/02/19 14:08:39;;;;;;;5.67;3.33;;;;;;;;;;6188335;23;20731;-86
2024/02/19 14:11:09;;;;;;;7.03;3.73;;;;;;;;;;6188918;23;20429;-85
2024/02/19 14:13:37;;;;;;;4.80;3.90;;;;;;;;;;6213780;23;20402;-87
2024/02/19 14:16:12;;;;;;;6.70;3.50;;;;;;;;;;6214468;23;20467;-83
2024/02/19 14:18:43;;;;;;;5.87;3.93;;;;;;;;;;6189518;23;20424;-86
2024/02/19 14:21:13;;;;;;;5.30;4.30;;;;;;;;;;6215907;23;20437;-85
2024/02/19 14:23:42;;;;;;;7.50;4.27;;;;;;;;;;6190337;23;20435;-87
2024/02/19 14:26:19;;;;;;;6.97;4.13;;;;;;;;;;6190444;23;20421;-85
2024/02/19 14:28:46;;;;;;;6.10;4.37;;;;;;;;;;6188015;23;20648;-86
2024/02/19 14:31:15;;;;;;;6.70;4.03;;;;;;;;;;6188860;23;20883;-85
2024/02/19 14:33:44;;;;;;;5.17;3.87;;;;;;;;;;6186593;23;20402;-84
2024/02/19 14:36:12;;;;;;;8.50;4.10;;;;;;;;;;6185778;23;20437;-86
2024/02/19 14:38:57;;;;;;;4.97;3.77;;;;;;;;;;6189673;23;20787;-85
2024/02/19 14:41:24;;;;;;;7.00;3.70;;;;;;;;;;6185273;23;20429;-84
2024/02/19 14:43:52;;;;;;;6.83;3.70;;;;;;;;;;6183820;23;20424;-84
2024/02/19 14:46:22;;;;;;;7.83;3.50;;;;;;;;;;6187092;23;20472;-85
2024/02/19 14:48:52;;;;;;;6.17;4.07;;;;;;;;;;6186808;23;20509;-83
2024/02/19 14:51:21;;;;;;;6.73;3.53;;;;;;;;;;6187139;23;20468;-85
2024/02/19 14:53:54;;;;;;;5.97;3.50;;;;;;;;;;6190619;23;20416;-85
2024/02/19 14:56:22;;;;;;;6.90;3.20;;;;;;;;;;6189501;23;20444;-86
2024/02/19 14:58:50;;;;;;;6.77;4.13;;;;;;;;;;6191573;23;20903;-86
2024/02/19 15:01:21;;;;;;;3.57;2.70;;;;;;;;;;6211115;23;20428;-88
2024/02/19 15:03:51;;;;;;;6.20;3.30;;;;;;;;;;6191377;23;20412;-86
2024/02/19 15:06:22;;;;;;;6.67;2.90;;;;;;;;;;6217007;23;20445;-84
2024/02/19 15:08:56;;;;;;;6.43;3.93;;;;;;;;;;6217994;23;20413;-86
2024/02/19 15:11:23;;;;;;;4.10;2.67;;;;;;;;;;6190851;23;21055;-84
2024/02/19 15:13:51;;;;;;;4.13;2.60;;;;;;;;;;6187854;23;20481;-84
2024/02/19 15:16:27;;;;;;;7.40;3.93;;;;;;;;;;6190211;23;20432;-84
2024/02/19 15:18:55;;;;;;;5.10;3.27;;;;;;;;;;6189282;23;20412;-86
2024/02/19 15:21:34;;;;;;;;;;;;;;;;;;;;;
2024/02/19 15:24:08;;;;;;;4.60;2.83;;;;;;;;;;6218579;23;20788;-86
2024/02/19 15:26:41;;;;;;;3.60;2.40;;;;;;;;;;6196198;23;20774;-85
2024/02/19 15:29:11;;;;;;;4.97;2.40;;;;;;;;;;6219770;23;20413;-84
2024/02/19 15:31:42;;;;;;;3.30;2.83;;;;;;;;;;6204312;23;20432;-85